Time;durP1;ratioP1;P1;durP2;ratioP2;P2;SDS_P1;SDS_P2;PMS_P1;PMS_P2;Temp;Humidity;BMP_temperature;BMP_pressure;BME280_temperature;BME280_humidity;BME280_pressure;Samples;Min_cycle;Max_cycle;Signal;HPM_P1;HPM_P2
2023/12/31 00:01:49;;;;;;;10.97;4.07;;;;;0.20;96781.00;;;;5054141;28;20422;-70
2023/12/31 00:04:38;;;;;;;5.37;2.47;;;;;0.20;96785.00;;;;5046661;28;20424;-71
2023/12/31 00:07:27;;;;;;;7.27;2.93;;;;;0.70;96787.00;;;;5041061;28;20454;-72
2023/12/31 00:10:17;;;;;;;7.70;3.03;;;;;0.70;96774.00;;;;5052701;28;20423;-70
2023/12/31 00:13:07;;;;;;;6.47;2.50;;;;;0.40;96762.00;;;;5055177;28;20972;-72
2023/12/31 00:15:56;;;;;;;13.57;4.53;;;;;0.60;96772.00;;;;5053379;28;20432;-69
2023/12/31 00:18:46;;;;;;;10.73;3.50;;;;;0.90;96772.00;;;;5047265;28;20458;-71
2023/12/31 00:21:35;;;;;;;7.10;2.60;;;;;1.10;96767.00;;;;5046944;28;20443;-71
2023/12/31 00:24:24;;;;;;;9.27;3.07;;;;;1.20;96766.00;;;;5052981;28;20470;-69
2023/12/31 00:27:13;;;;;;;10.47;3.43;;;;;1.40;96764.00;;;;5049004;28;20798;-69
2023/12/31 00:30:04;;;;;;;12.90;4.03;;;;;1.20;96768.00;;;;5053746;28;20431;-69
2023/12/31 00:32:53;;;;;;;10.53;3.33;;;;;0.90;96754.00;;;;5050074;28;20430;-70
2023/12/31 00:35:42;;;;;;;11.47;3.67;;;;;0.80;96745.00;;;;5050274;28;20931;-69
2023/12/31 00:38:31;;;;;;;11.43;3.63;;;;;0.90;96749.00;;;;5045858;28;20451;-70
2023/12/31 00:41:20;;;;;;;8.63;3.13;;;;;0.70;96739.00;;;;5047433;28;21038;-70
2023/12/31 00:44:10;;;;;;;7.73;2.97;;;;;0.60;96734.00;;;;5038631;28;20478;-69
2023/12/31 00:47:00;;;;;;;10.10;3.67;;;;;0.10;96723.00;;;;5054220;28;20440;-71
2023/12/31 00:49:49;;;;;;;10.43;3.77;;;;;-0.20;96713.00;;;;5055351;28;20422;-70
2023/12/31 00:52:38;;;;;;;10.23;3.80;;;;;0.20;96706.00;;;;5050975;28;20427;-71
2023/12/31 00:55:27;;;;;;;7.13;3.07;;;;;-0.30;96698.00;;;;5045651;28;20526;-68
2023/12/31 00:58:18;;;;;;;7.07;2.80;;;;;-0.30;96699.00;;;;5050167;28;20459;-70
2023/12/31 01:01:07;;;;;;;4.97;2.07;;;;;0.00;96703.00;;;;5051253;28;20427;-70
2023/12/31 01:03:57;;;;;;;8.57;3.50;;;;;0.10;96702.00;;;;5052348;28;20471;-69
2023/12/31 01:06:47;;;;;;;12.80;4.57;;;;;0.20;96699.00;;;;5057648;28;20442;-70
2023/12/31 01:09:36;;;;;;;8.33;3.23;;;;;-0.20;96687.00;;;;5048268;28;20451;-69
2023/12/31 01:12:25;;;;;;;7.13;2.73;;;;;0.00;96681.00;;;;5048944;28;20979;-69
2023/12/31 01:15:14;;;;;;;5.47;2.23;;;;;-0.30;96682.00;;;;5047534;28;20430;-69
2023/12/31 01:18:03;;;;;;;3.93;1.80;;;;;-0.60;96689.00;;;;5054246;28;20448;-71
2023/12/31 01:20:54;;;;;;;14.73;5.47;;;;;-0.20;96690.00;;;;5051076;28;20430;-68
2023/12/31 01:23:43;;;;;;;12.70;4.67;;;;;0.40;96693.00;;;;5050900;28;20459;-69
2023/12/31 01:26:33;;;;;;;7.40;3.03;;;;;0.40;96697.00;;;;5047615;28;20431;-69
2023/12/31 01:29:23;;;;;;;10.30;3.90;;;;;0.40;96693.00;;;;5047734;28;20455;-70
2023/12/31 01:32:12;;;;;;;9.30;3.57;;;;;-0.20;96690.00;;;;5049865;28;20443;-71
2023/12/31 01:35:03;;;;;;;7.73;3.07;;;;;0.70;96695.00;;;;5050007;28;20420;-72
2023/12/31 01:37:53;;;;;;;10.97;4.17;;;;;0.10;96687.00;;;;5051438;28;20849;-72
2023/12/31 01:40:53;;;;;;;13.97;4.70;;;;;0.20;96695.00;;;;5046940;28;20516;-73
2023/12/31 01:43:42;;;;;;;14.87;5.13;;;;;0.60;96699.00;;;;5051638;28;20463;-71
2023/12/31 01:46:33;;;;;;;7.97;2.90;;;;;0.60;96697.00;;;;5050399;28;20769;-70
2023/12/31 01:49:22;;;;;;;5.47;2.13;;;;;0.80;96695.00;;;;5056314;28;20454;-70
2023/12/31 01:52:11;;;;;;;12.00;4.37;;;;;0.70;96692.00;;;;5049018;28;20420;-71
2023/12/31 01:55:05;;;;;;;11.23;4.10;;;;;0.40;96680.00;;;;5051663;28;20428;-70
2023/12/31 01:57:54;;;;;;;11.97;4.27;;;;;0.30;96682.00;;;;5049939;28;20834;-70
2023/12/31 02:00:43;;;;;;;14.73;4.97;;;;;-0.20;96682.00;;;;5046125;28;20427;-69
2023/12/31 02:03:32;;;;;;;8.17;2.97;;;;;-0.10;96681.00;;;;5055155;28;20471;-70
2023/12/31 02:06:22;;;;;;;8.23;3.07;;;;;0.00;96674.00;;;;5052631;28;20444;-70
2023/12/31 02:09:11;;;;;;;8.20;3.13;;;;;-0.50;96669.00;;;;5053472;28;20449;-71
2023/12/31 02:12:02;;;;;;;10.67;3.97;;;;;-0.30;96659.00;;;;5055434;28;20442;-69
2023/12/31 02:14:51;;;;;;;11.40;4.20;;;;;0.00;96662.00;;;;5050888;28;20799;-70
2023/12/31 02:17:40;;;;;;;11.90;4.20;;;;;0.20;96657.00;;;;5048111;28;20433;-69
2023/12/31 02:20:30;;;;;;;5.20;2.10;;;;;0.00;96650.00;;;;5051489;28;20435;-69
2023/12/31 02:23:20;;;;;;;7.53;2.77;;;;;-0.80;96643.00;;;;5047668;28;20450;-72
2023/12/31 02:26:11;;;;;;;7.80;2.90;;;;;-1.20;96636.00;;;;5057270;28;20435;-68
2023/12/31 02:29:00;;;;;;;10.83;4.07;;;;;-1.30;96637.00;;;;5055180;28;20469;-71
2023/12/31 02:31:49;;;;;;;10.97;3.97;;;;;-1.40;96627.00;;;;5049835;28;20419;-73
2023/12/31 02:34:44;;;;;;;7.17;2.87;;;;;-0.30;96623.00;;;;5044819;28;20427;-69
2023/12/31 02:37:33;;;;;;;8.27;3.13;;;;;-0.40;96616.00;;;;5050954;28;20423;-69
2023/12/31 02:40:22;;;;;;;8.20;3.13;;;;;0.00;96618.00;;;;5054043;28;20434;-68
2023/12/31 02:43:13;;;;;;;11.97;4.23;;;;;-0.10;96627.00;;;;5045316;28;20454;-69
2023/12/31 02:46:02;;;;;;;12.17;4.57;;;;;0.10;96610.00;;;;5053098;28;20427;-69
2023/12/31 02:48:51;;;;;;;12.20;4.37;;;;;0.00;96615.00;;;;5057574;28;20438;-69
2023/12/31 02:51:40;;;;;;;5.70;2.10;;;;;0.30;96619.00;;;;5044445;28;20831;-69
2023/12/31 02:54:29;;;;;;;6.53;2.50;;;;;0.60;96609.00;;;;5044911;28;20871;-69
2023/12/31 02:57:22;;;;;;;9.80;3.43;;;;;0.40;96598.00;;;;5054506;28;20448;-69
2023/12/31 03:00:14;;;;;;;9.40;3.33;;;;;0.50;96594.00;;;;5057930;28;20422;-70
2023/12/31 03:03:03;;;;;;;7.53;2.70;;;;;-0.10;96587.00;;;;5058626;28;20450;-69
2023/12/31 03:05:53;;;;;;;8.10;2.97;;;;;-0.30;96564.00;;;;5054218;28;20867;-69
2023/12/31 03:08:42;;;;;;;7.27;2.83;;;-1.60;99.90;-0.80;96561.00;;;;5048733;28;20454;-70
2023/12/31 03:11:30;;;;;;;8.27;3.00;;;-2.20;99.90;0.00;96574.00;;;;5052478;28;20423;-71
2023/12/31 03:14:19;;;;;;;7.33;2.70;;;-2.20;99.90;-0.50;96557.00;;;;5050457;28;20924;-70
2023/12/31 03:17:09;;;;;;;5.57;2.23;;;-2.20;99.90;-1.00;96545.00;;;;5050633;28;20442;-72
2023/12/31 03:19:58;;;;;;;11.27;4.20;;;-2.00;99.90;-0.40;96552.00;;;;5049352;28;20432;-70
2023/12/31 03:22:47;;;;;;;10.63;3.77;;;-2.20;99.90;-0.80;96540.00;;;;5052296;28;20543;-71
2023/12/31 03:25:36;;;;;;;7.10;2.70;;;-2.20;99.90;-0.40;96549.00;;;;5043417;28;20464;-69
2023/12/31 03:28:25;;;;;;;7.63;2.80;;;-2.10;99.90;-0.60;96549.00;;;;5044591;28;20824;-69
2023/12/31 03:31:14;;;;;;;8.87;3.27;;;-1.90;99.90;-0.30;96549.00;;;;5050903;28;20451;-70
2023/12/31 03:34:06;;;;;;;12.03;4.33;;;-2.20;99.90;-0.10;96557.00;;;;5056381;28;20426;-69
2023/12/31 03:36:55;;;;;;;11.93;4.00;;;-1.30;99.90;-0.10;96549.00;;;;5050335;28;20939;-72
2023/12/31 03:39:44;;;;;;;7.97;2.80;;;-1.80;99.90;-0.40;96544.00;;;;5050735;28;20798;-70
2023/12/31 03:42:33;;;;;;;7.50;2.67;;;-1.80;99.90;-0.70;96544.00;;;;5042090;28;20450;-71
2023/12/31 03:45:22;;;;;;;9.47;3.40;;;-2.10;99.90;-0.10;96540.00;;;;5053318;28;20462;-70
2023/12/31 03:48:11;;;;;;;4.47;1.83;;;-2.10;99.90;-0.40;96533.00;;;;5044688;28;20999;-71
2023/12/31 03:51:02;;;;;;;10.57;3.90;;;-1.90;99.90;-0.30;96526.00;;;;5046943;28;20484;-71
2023/12/31 03:53:51;;;;;;;13.33;4.53;;;-2.00;99.90;0.10;96531.00;;;;5047877;28;20427;-71
2023/12/31 03:56:39;;;;;;;9.07;3.10;;;-1.80;99.90;-0.30;96521.00;;;;5050548;28;20430;-71
2023/12/31 03:59:28;;;;;;;6.73;2.53;;;-2.20;99.90;0.10;96531.00;;;;5048633;28;20459;-69
2023/12/31 04:02:18;;;;;;;13.73;4.70;;;-2.00;99.90;0.10;96526.00;;;;5046284;28;20498;-69
2023/12/31 04:05:08;;;;;;;8.60;3.00;;;-2.00;99.90;0.30;96519.00;;;;5050801;28;20466;-68
2023/12/31 04:07:58;;;;;;;9.53;3.30;;;-1.70;99.90;0.50;96520.00;;;;5050014;28;20458;-70
2023/12/31 04:10:47;;;;;;;21.93;6.67;;;-1.80;99.90;0.50;96517.00;;;;5050113;28;20423;-69
2023/12/31 04:13:36;;;;;;;13.20;4.13;;;-1.70;99.90;0.40;96512.00;;;;5048229;28;20423;-69
2023/12/31 04:16:25;;;;;;;7.47;2.67;;;-1.60;99.90;-0.10;96508.00;;;;5047779;28;21000;-69
2023/12/31 04:19:14;;;;;;;10.23;3.50;;;-1.80;99.90;-0.30;96501.00;;;;5055149;28;20450;-70
2023/12/31 04:22:03;;;;;;;15.47;4.90;;;-2.00;99.90;-0.30;96501.00;;;;5055539;28;20454;-69
2023/12/31 04:24:53;;;;;;;16.50;4.77;;;-1.80;99.90;-1.50;96487.00;;;;5056421;28;20455;-71
2023/12/31 04:27:44;;;;;;;14.37;4.50;;;-2.20;99.90;-1.50;96497.00;;;;5057598;28;20995;-72
2023/12/31 04:30:33;;;;;;;26.77;7.47;;;-2.20;99.90;-0.90;96486.00;;;;5053718;28;20415;-70
2023/12/31 04:33:22;;;;;;;10.00;3.13;;;-2.50;99.90;-0.80;96494.00;;;;5053619;28;20445;-71
2023/12/31 04:36:11;;;;;;;9.37;3.20;;;-2.50;99.90;-1.10;96487.00;;;;5058722;28;20419;-68
2023/12/31 04:38:59;;;;;;;17.60;5.23;;;-2.20;99.90;-1.00;96476.00;;;;5060630;28;20450;-71
2023/12/31 04:41:50;;;;;;;14.43;4.50;;;-2.30;99.90;-0.90;96476.00;;;;5057345;28;20423;-72
2023/12/31 04:44:39;;;;;;;8.27;2.90;;;-2.30;99.90;-0.60;96487.00;;;;5054144;28;20463;-70
2023/12/31 04:47:28;;;;;;;7.57;2.83;;;-2.20;99.90;-0.60;96461.00;;;;5049693;28;20416;-69
2023/12/31 04:50:17;;;;;;;10.67;3.73;;;-2.20;99.90;-1.00;96471.00;;;;5058281;28;20427;-72
2023/12/31 04:53:06;;;;;;;8.73;2.93;;;-2.40;99.90;-1.80;96470.00;;;;5055437;28;20430;-69
2023/12/31 04:55:55;;;;;;;17.53;5.43;;;-2.50;99.90;-0.80;96470.00;;;;5055206;28;20435;-68
2023/12/31 04:58:45;;;;;;;9.40;3.17;;;-2.40;99.90;-0.50;96464.00;;;;5061326;28;21232;-69
2023/12/31 05:01:34;;;;;;;7.37;2.97;;;-2.30;99.90;-0.90;96453.00;;;;5053599;28;20453;-68
2023/12/31 05:04:22;;;;;;;7.90;2.97;;;-2.30;99.90;-0.70;96450.00;;;;5054085;28;20935;-69
2023/12/31 05:07:12;;;;;;;7.67;2.80;;;-2.30;99.90;-0.50;96451.00;;;;5050761;28;20446;-70
2023/12/31 05:10:01;;;;;;;12.00;4.30;;;-2.20;99.90;-0.70;96441.00;;;;5062822;28;20437;-70
2023/12/31 05:12:50;;;;;;;15.03;5.13;;;-2.10;99.90;-0.90;96447.00;;;;5056816;28;20457;-70
2023/12/31 05:15:40;;;;;;;5.93;2.30;;;-2.40;99.90;-0.90;96435.00;;;;5053356;28;20956;-70
2023/12/31 05:18:29;;;;;;;7.50;2.73;;;-2.30;99.90;-1.60;96428.00;;;;5057226;28;20454;-71
2023/12/31 05:21:18;;;;;;;10.87;3.53;;;-2.50;99.90;-1.60;96427.00;;;;5052351;28;20505;-72
2023/12/31 05:24:08;;;;;;;17.07;5.37;;;-2.40;99.90;-0.80;96424.00;;;;5057496;28;20434;-70
2023/12/31 05:26:56;;;;;;;16.73;5.40;;;-2.60;99.90;-0.70;96414.00;;;;5058533;28;20467;-69
2023/12/31 05:29:45;;;;;;;12.27;4.00;;;-2.30;99.90;-0.60;96413.00;;;;5049841;28;20455;-68
2023/12/31 05:32:35;;;;;;;11.47;3.67;;;-2.40;99.90;-0.30;96423.00;;;;5053551;28;20471;-69
2023/12/31 05:35:24;;;;;;;9.00;3.10;;;-2.30;99.90;-0.80;96404.00;;;;5053001;28;20427;-70
2023/12/31 05:38:13;;;;;;;13.93;4.60;;;-2.40;99.90;-0.50;96417.00;;;;5048307;28;20982;-69
2023/12/31 05:41:02;;;;;;;14.17;4.57;;;-2.40;99.90;-0.60;96409.00;;;;5050955;28;20434;-70
2023/12/31 05:43:51;;;;;;;21.20;6.50;;;-2.00;99.90;-0.50;96412.00;;;;5056154;28;20931;-71
2023/12/31 05:46:40;;;;;;;11.00;3.63;;;-2.30;99.90;-0.50;96416.00;;;;5050157;28;20459;-69
2023/12/31 05:49:35;;;;;;;9.77;3.13;;;-2.40;99.90;-0.30;96409.00;;;;5039766;28;20443;-70
2023/12/31 05:52:24;;;;;;;11.10;3.70;;;-2.00;99.90;-0.30;96405.00;;;;5051843;28;20481;-70
2023/12/31 05:55:13;;;;;;;10.27;3.37;;;-2.20;99.90;-0.50;96407.00;;;;5048894;28;20427;-70
2023/12/31 05:58:02;;;;;;;14.97;4.83;;;-2.00;99.90;-0.70;96408.00;;;;5053976;28;20458;-69
2023/12/31 06:00:51;;;;;;;25.33;7.47;;;-1.90;99.90;-0.80;96396.00;;;;5050702;28;20440;-70
2023/12/31 06:03:40;;;;;;;19.60;5.90;;;-2.40;99.90;-0.50;96411.00;;;;5053733;28;20476;-68
2023/12/31 06:06:36;;;;;;;9.40;3.20;;;-2.20;99.90;-0.10;96421.00;;;;5054028;28;20459;-69
2023/12/31 06:09:26;;;;;;;9.77;3.33;;;-2.10;99.90;-0.10;96408.00;;;;5053942;28;20455;-69
2023/12/31 06:12:15;;;;;;;16.73;5.30;;;-2.20;99.90;-0.40;96416.00;;;;5057294;28;20419;-70
2023/12/31 06:15:06;;;;;;;15.80;4.90;;;-2.20;99.90;-0.10;96408.00;;;;5056170;28;20422;-69
2023/12/31 06:17:55;;;;;;;19.60;6.03;;;-2.10;99.90;-0.60;96407.00;;;;5050767;28;20443;-69
2023/12/31 06:20:44;;;;;;;22.23;6.63;;;-2.30;99.90;-0.30;96404.00;;;;5047377;28;20434;-69
2023/12/31 06:23:34;;;;;;;11.63;3.80;;;-2.10;99.90;-0.10;96403.00;;;;5048399;28;20423;-69
2023/12/31 06:26:23;;;;;;;11.43;3.67;;;-2.00;99.90;-0.40;96397.00;;;;5052609;28;20459;-69
2023/12/31 06:29:12;;;;;;;8.60;3.00;;;-2.20;99.90;-0.40;96389.00;;;;5057517;28;20450;-70
2023/12/31 06:32:01;;;;;;;17.90;5.70;;;-1.80;99.90;-1.20;96377.00;;;;5052892;28;20431;-69
2023/12/31 06:34:51;;;;;;;9.63;3.37;;;-2.50;99.90;-1.60;96389.00;;;;5053962;28;20427;-73
2023/12/31 06:37:40;;;;;;;19.93;5.93;;;-2.60;99.90;-1.60;96380.00;;;;5049411;28;20790;-72
2023/12/31 06:40:30;;;;;;;12.23;3.87;;;-2.40;99.90;-1.40;96380.00;;;;5052818;28;20424;-71
2023/12/31 06:43:19;;;;;;;11.60;3.70;;;-2.50;99.90;-0.80;96374.00;;;;5050745;28;20981;-69
2023/12/31 06:46:08;;;;;;;11.70;3.87;;;-2.50;99.90;-0.70;96379.00;;;;5053644;28;20451;-70
2023/12/31 06:48:57;;;;;;;24.47;7.30;;;-2.20;99.90;-0.40;96384.00;;;;5050884;28;20457;-69
2023/12/31 06:51:47;;;;;;;11.50;3.80;;;-2.40;99.90;-0.40;96365.00;;;;5050420;28;20432;-70
2023/12/31 06:54:36;;;;;;;10.67;3.67;;;-1.50;99.90;-0.50;96371.00;;;;5047004;28;20431;-70
2023/12/31 06:57:26;;;;;;;20.40;6.47;;;-2.10;99.90;-0.70;96364.00;;;;5046249;28;20428;-70
2023/12/31 07:00:16;;;;;;;17.83;5.40;;;-2.30;99.90;-0.60;96370.00;;;;5046160;28;20961;-67
2023/12/31 07:03:06;;;;;;;19.77;6.13;;;-2.20;99.90;-0.10;96378.00;;;;5043610;28;20435;-69
2023/12/31 07:05:56;;;;;;;23.37;7.33;;;-2.40;99.90;0.00;96369.00;;;;5047046;28;20572;-69
2023/12/31 07:08:45;;;;;;;15.57;5.03;;;-2.00;99.90;-0.10;96367.00;;;;5040034;28;20513;-69
2023/12/31 07:11:34;;;;;;;11.60;3.90;;;-2.40;99.90;-0.30;96367.00;;;;5044441;28;20929;-68
2023/12/31 07:14:24;;;;;;;14.07;4.73;;;-2.20;99.90;-0.20;96361.00;;;;5042950;28;20428;-70
2023/12/31 07:17:13;;;;;;;9.73;3.40;;;-2.20;99.90;-0.70;96363.00;;;;5045919;28;20433;-70
2023/12/31 07:20:04;;;;;;;19.93;6.23;;;-2.30;99.90;-1.10;96355.00;;;;5040178;28;20808;-71
2023/12/31 07:22:53;;;;;;;20.17;6.13;;;-2.10;99.90;-0.90;96370.00;;;;5050330;28;20987;-69
2023/12/31 07:25:43;;;;;;;12.30;4.03;;;-2.50;99.90;-0.30;96357.00;;;;5044181;28;20432;-68
2023/12/31 07:28:32;;;;;;;12.60;4.37;;;-2.00;99.90;-0.40;96348.00;;;;5040782;28;20455;-69
2023/12/31 07:31:22;;;;;;;14.47;4.70;;;-2.40;99.90;-0.60;96362.00;;;;5041652;28;20952;-70
2023/12/31 07:34:11;;;;;;;13.27;4.37;;;-1.80;99.90;-0.70;96352.00;;;;5042442;28;20469;-68
2023/12/31 07:37:00;;;;;;;23.47;7.13;;;-2.30;99.90;-0.70;96352.00;;;;5042103;28;20423;-71
2023/12/31 07:39:49;;;;;;;15.17;5.03;;;-2.30;99.90;-0.90;96346.00;;;;5041781;28;20439;-72
2023/12/31 07:42:38;;;;;;;16.33;5.17;;;-1.90;99.90;-1.40;96341.00;;;;5040068;28;20486;-71
2023/12/31 07:45:27;;;;;;;10.83;3.73;;;-2.40;99.90;-1.20;96338.00;;;;5041579;28;20824;-74
2023/12/31 07:48:18;;;;;;;12.10;4.10;;;-2.00;99.90;-0.20;96343.00;;;;5043597;28;20459;-74
2023/12/31 07:51:09;;;;;;;19.43;6.03;;;-2.20;99.90;0.10;96345.00;;;;5039851;28;20434;-69
2023/12/31 07:53:58;;;;;;;23.67;7.43;;;-2.00;99.90;0.20;96355.00;;;;5040697;28;20439;-70
2023/12/31 07:56:47;;;;;;;17.43;5.57;;;-1.70;99.90;0.10;96342.00;;;;5042295;28;20443;-70
2023/12/31 07:59:37;;;;;;;11.30;3.83;;;-1.90;99.90;-0.30;96342.00;;;;5043531;28;20463;-69
2023/12/31 08:02:26;;;;;;;15.93;5.17;;;-1.50;99.90;-0.50;96322.00;;;;5040448;28;20855;-71
2023/12/31 08:05:16;;;;;;;20.53;6.20;;;-1.70;99.90;-0.60;96331.00;;;;5038983;28;20452;-69
2023/12/31 08:08:07;;;;;;;23.03;7.00;;;-1.80;99.90;-0.30;96342.00;;;;5041526;28;20479;-69
2023/12/31 08:10:59;;;;;;;24.87;7.63;;;-1.80;99.90;-0.60;96332.00;;;;5040148;28;20432;-73
2023/12/31 08:13:50;;;;;;;17.67;5.57;;;-1.80;99.90;-0.50;96336.00;;;;5041447;28;20823;-70
2023/12/31 08:16:39;;;;;;;14.27;4.90;;;-1.70;99.90;-0.10;96332.00;;;;5043466;28;20446;-68
2023/12/31 08:19:28;;;;;;;9.13;3.30;;;-1.90;99.90;0.20;96330.00;;;;5046059;28;20957;-68
2023/12/31 08:22:18;;;;;;;19.70;6.40;;;-1.70;99.90;0.50;96328.00;;;;5038953;28;20443;-68
2023/12/31 08:25:08;;;;;;;26.07;8.37;;;-1.50;99.90;0.30;96333.00;;;;5038808;28;20447;-68
2023/12/31 08:27:57;;;;;;;24.07;7.53;;;-1.50;99.90;0.20;96336.00;;;;5044414;28;20467;-69
2023/12/31 08:30:46;;;;;;;27.50;8.83;;;-1.30;99.90;0.40;96333.00;;;;5042160;28;20439;-69
2023/12/31 08:33:36;;;;;;;17.83;6.03;;;-1.50;99.90;-0.40;96325.00;;;;5041338;28;20454;-71
2023/12/31 08:36:25;;;;;;;11.43;4.40;;;-1.60;99.90;-0.10;96334.00;;;;5048226;28;20443;-68
2023/12/31 08:39:15;;;;;;;15.87;5.53;;;-1.80;99.90;0.10;96323.00;;;;5045899;28;20518;-71
2023/12/31 08:42:05;;;;;;;25.67;8.37;;;-1.30;99.90;-0.10;96317.00;;;;5040593;28;21019;-68
2023/12/31 08:44:54;;;;;;;20.67;6.90;;;-1.50;99.90;-0.30;96325.00;;;;5041811;28;20435;-70
2023/12/31 08:47:44;;;;;;;25.13;8.57;;;-1.40;99.90;0.40;96324.00;;;;5046243;28;21041;-70
2023/12/31 08:50:33;;;;;;;13.37;4.93;;;-1.20;99.90;1.00;96336.00;;;;5041127;28;20439;-69
2023/12/31 08:53:22;;;;;;;12.70;5.10;;;-1.20;99.90;0.60;96328.00;;;;5043026;28;20438;-68
2023/12/31 08:56:12;;;;;;;16.40;6.23;;;-0.80;99.90;1.00;96339.00;;;;5040263;28;20982;-69
2023/12/31 08:59:02;;;;;;;25.30;9.27;;;-0.80;99.90;1.40;96340.00;;;;5039890;28;20462;-69
2023/12/31 09:01:51;;;;;;;18.40;7.70;;;-0.90;99.90;0.70;96339.00;;;;5044450;28;20431;-68
2023/12/31 09:04:40;;;;;;;23.53;8.43;;;-0.60;99.90;0.40;96336.00;;;;5039376;28;21669;-70
2023/12/31 09:07:29;;;;;;;19.33;7.63;;;-0.80;99.90;1.20;96326.00;;;;5041454;28;20479;-68
2023/12/31 09:10:18;;;;;;;40.00;15.20;;;-0.70;99.90;1.90;96322.00;;;;5044463;28;20431;-69
2023/12/31 09:13:09;;;;;;;28.70;11.53;;;-0.50;99.90;2.30;96320.00;;;;5039250;28;20859;-69
2023/12/31 09:15:58;;;;;;;28.37;11.23;;;-0.50;99.90;2.30;96326.00;;;;5041608;28;20450;-70
2023/12/31 09:18:46;;;;;;;20.07;9.03;;;-0.30;99.90;2.40;96320.00;;;;5042143;28;20459;-68
2023/12/31 09:21:35;;;;;;;23.77;9.63;;;0.20;99.90;2.30;96321.00;;;;5041526;28;20453;-70
2023/12/31 09:24:25;;;;;;;11.27;7.40;;;0.10;99.90;1.90;96315.00;;;;5043278;28;20443;-71
2023/12/31 09:27:14;;;;;;;19.13;8.57;;;0.40;99.90;1.50;96310.00;;;;5044716;28;20829;-68
2023/12/31 09:30:05;;;;;;;25.53;9.87;;;0.50;99.90;2.20;96322.00;;;;5048416;28;20438;-70
2023/12/31 09:32:54;;;;;;;22.10;8.50;;;0.10;99.90;2.70;96319.00;;;;5039750;28;20444;-70
2023/12/31 09:35:43;;;;;;;28.00;14.10;;;0.40;99.90;2.50;96306.00;;;;5049330;28;20426;-73
2023/12/31 09:38:33;;;;;;;31.40;17.93;;;0.60;99.90;2.20;96302.00;;;;5042992;28;20470;-72
2023/12/31 09:41:24;;;;;;;19.17;13.17;;;0.50;99.90;2.90;96303.00;;;;5044844;28;20447;-70
2023/12/31 09:44:17;;;;;;;22.20;13.23;;;0.70;99.90;3.00;96282.00;;;;5045362;28;20450;-71
2023/12/31 09:47:09;;;;;;;25.27;15.57;;;1.00;99.90;3.90;96302.00;;;;5043616;28;20467;-71
2023/12/31 09:50:00;;;;;;;23.77;18.13;;;1.30;99.90;3.80;96291.00;;;;5043650;28;20496;-70
2023/12/31 09:52:50;;;;;;;27.43;17.90;;;1.60;99.90;4.00;96285.00;;;;5044148;28;20438;-71
2023/12/31 09:55:40;;;;;;;23.93;17.93;;;2.30;99.90;3.70;96284.00;;;;5043714;28;20428;-72
2023/12/31 09:58:29;;;;;;;19.90;16.87;;;1.60;99.90;3.60;96283.00;;;;5044471;28;20823;-71
2023/12/31 10:01:18;;;;;;;21.53;15.67;;;1.80;99.90;3.60;96274.00;;;;5045715;28;20953;-71
2023/12/31 10:04:09;;;;;;;31.37;19.03;;;2.20;99.90;4.00;96273.00;;;;5042362;28;20812;-72
2023/12/31 10:07:00;;;;;;;32.63;17.87;;;2.10;99.90;4.00;96262.00;;;;5042547;28;20493;-71
2023/12/31 10:09:50;;;;;;;25.70;17.10;;;2.00;99.90;4.10;96269.00;;;;5044275;28;20457;-69
2023/12/31 10:12:39;;;;;;;25.53;16.93;;;2.20;99.90;4.30;96279.00;;;;5041102;28;20502;-72
2023/12/31 10:15:28;;;;;;;24.33;17.10;;;2.20;99.90;4.20;96273.00;;;;5041391;28;20201;-71
2023/12/31 10:18:18;;;;;;;22.13;15.33;;;2.20;99.90;4.00;96266.00;;;;5041382;28;20455;-70
2023/12/31 10:21:09;;;;;;;30.90;19.83;;;2.60;99.90;4.70;96271.00;;;;5042508;28;20455;-70
2023/12/31 10:23:58;;;;;;;34.63;24.43;;;2.90;99.90;5.50;96269.00;;;;5039955;28;20205;-72
2023/12/31 10:26:49;;;;;;;27.53;24.80;;;2.60;99.90;5.40;96260.00;;;;5043310;28;20201;-71
2023/12/31 10:29:39;;;;;;;32.23;28.97;;;3.30;99.90;6.30;96270.00;;;;5044989;28;20212;-71
2023/12/31 10:32:28;;;;;;;21.60;19.63;;;3.90;99.90;7.30;96265.00;;;;5043308;28;20696;-71
2023/12/31 10:35:21;;;;;;;40.70;33.80;;;5.40;99.90;8.20;96270.00;;;;5037860;28;20212;-69
2023/12/31 10:38:11;;;;;;;44.67;37.83;;;6.40;99.90;9.10;96266.00;;;;5040331;28;20221;-69
2023/12/31 10:41:10;;;;;;;46.60;41.50;;;7.70;99.90;9.30;96262.00;;;;5043914;28;20593;-69
2023/12/31 10:44:03;;;;;;;50.13;44.77;;;7.80;99.90;10.00;96260.00;;;;5050195;28;20196;-70
2023/12/31 10:46:54;;;;;;;53.23;48.23;;;8.70;99.90;10.40;96254.00;;;;5041160;28;20645;-69
2023/12/31 10:49:46;;;;;;;62.67;56.50;;;9.10;99.90;10.70;96244.00;;;;5045177;28;20235;-69
2023/12/31 10:52:37;;;;;;;56.37;51.50;;;9.70;99.90;11.40;96239.00;;;;5042212;28;20193;-68
2023/12/31 10:55:28;;;;;;;62.13;56.50;;;10.00;99.90;11.40;96244.00;;;;5045651;28;20715;-69
2023/12/31 10:58:17;;;;;;;76.33;69.00;;;10.60;99.90;11.00;96230.00;;;;5043409;28;20220;-69
2023/12/31 11:01:06;;;;;;;76.40;68.53;;;11.40;99.90;11.30;96239.00;;;;5041834;28;20204;-68
2023/12/31 11:03:56;;;;;;;75.97;68.67;;;10.60;99.90;8.80;96209.00;;;;5044758;28;20205;-71
2023/12/31 11:06:47;;;;;;;68.93;63.30;;;10.70;99.90;8.90;96196.00;;;;5042823;28;20201;-70
2023/12/31 11:09:36;;;;;;;24.40;19.70;;;9.90;99.90;9.10;96197.00;;;;5039668;28;20607;-69
2023/12/31 11:12:29;;;;;;;24.90;22.17;;;9.50;99.90;7.70;96180.00;;;;5042025;28;20204;-73
2023/12/31 11:15:22;;;;;;;41.23;37.67;;;8.60;99.90;7.40;96161.00;;;;5041693;28;20215;-68
2023/12/31 11:18:41;;;;;;;41.43;37.27;;;7.50;99.90;8.30;96181.00;;;;5037044;28;20228;-69
2023/12/31 11:21:53;;;;;;;37.17;33.87;;;7.40;99.90;9.10;96180.00;;;;5042572;28;20209;-70
2023/12/31 11:24:43;;;;;;;39.17;35.70;;;7.70;99.90;9.30;96180.00;;;;5039021;28;20288;-70
2023/12/31 11:27:35;;;;;;;39.37;35.73;;;8.00;99.90;9.30;96180.00;;;;5043652;28;20212;-70
2023/12/31 11:30:51;;;;;;;43.97;39.57;;;8.10;99.90;10.10;96168.00;;;;5039613;28;20204;-70
2023/12/31 11:33:41;;;;;;;47.17;42.33;;;8.20;99.90;10.50;96175.00;;;;5039027;28;20248;-69
2023/12/31 11:36:31;;;;;;;44.27;40.33;;;8.60;99.90;10.00;96169.00;;;;5040016;28;20205;-70
2023/12/31 11:39:24;;;;;;;39.80;36.63;;;8.70;99.90;10.00;96156.00;;;;5038611;28;20724;-71
2023/12/31 11:42:13;;;;;;;48.27;43.63;;;8.20;99.90;10.40;96155.00;;;;5033832;28;20204;-71
2023/12/31 11:45:04;;;;;;;40.70;36.77;;;8.50;99.90;10.40;96134.00;;;;5039676;28;20207;-71
2023/12/31 11:47:53;;;;;;;33.47;30.20;;;8.20;99.90;9.40;96131.00;;;;5037569;28;20220;-71
2023/12/31 11:50:42;;;;;;;39.37;34.23;;;8.10;99.90;10.60;96128.00;;;;5041698;28;20215;-70
2023/12/31 11:53:49;;;;;;;30.93;27.90;;;8.40;99.90;10.70;96118.00;;;;5037730;28;20682;-70
2023/12/31 11:56:38;;;;;;;36.87;33.83;;;8.40;99.90;10.50;96121.00;;;;5041749;28;21473;-71
2023/12/31 11:59:27;;;;;;;33.00;30.00;;;8.70;99.90;9.40;96109.00;;;;5042864;28;20216;-70
2023/12/31 12:02:18;;;;;;;28.57;24.80;;;8.60;99.90;9.50;96111.00;;;;5038503;28;20208;-70
2023/12/31 12:05:09;;;;;;;35.87;26.33;;;8.10;99.90;9.50;96109.00;;;;5038637;28;20215;-70
2023/12/31 12:07:59;;;;;;;31.50;27.57;;;7.80;99.90;9.20;96103.00;;;;5035828;28;20786;-70
2023/12/31 12:10:48;;;;;;;31.70;21.57;;;7.60;99.90;9.20;96101.00;;;;5039134;28;20208;-70
2023/12/31 12:13:37;;;;;;;26.80;21.90;;;7.50;99.90;8.60;96099.00;;;;5035416;28;20283;-70
2023/12/31 12:16:28;;;;;;;20.20;18.33;;;6.80;99.90;8.90;96102.00;;;;5046721;28;20573;-70
2023/12/31 12:19:18;;;;;;;19.97;18.13;;;6.60;99.90;8.60;96094.00;;;;5041149;28;20220;-69
2023/12/31 12:22:08;;;;;;;46.27;30.53;;;6.90;99.90;8.80;96096.00;;;;5039017;28;20607;-70
2023/12/31 12:24:58;;;;;;;33.87;23.30;;;6.30;99.90;8.70;96095.00;;;;5035516;28;20217;-70
2023/12/31 12:27:47;;;;;;;41.83;26.13;;;6.40;99.90;8.60;96088.00;;;;5035633;28;20234;-69
2023/12/31 12:30:36;;;;;;;24.90;20.87;;;6.60;99.90;8.60;96093.00;;;;5038564;28;20196;-70
2023/12/31 12:33:25;;;;;;;23.93;21.43;;;6.30;99.90;8.50;96080.00;;;;5038864;28;20681;-68
2023/12/31 12:36:15;;;;;;;23.43;17.07;;;6.50;99.90;8.10;96079.00;;;;5038793;28;20274;-70
2023/12/31 12:39:05;;;;;;;35.47;22.87;;;6.40;99.90;8.40;96083.00;;;;5037133;28;20212;-71
2023/12/31 12:41:54;;;;;;;52.83;26.40;;;5.90;99.90;8.50;96076.00;;;;5037687;28;20212;-71
2023/12/31 12:44:49;;;;;;;21.97;18.07;;;6.40;99.90;8.30;96084.00;;;;5043354;28;20207;-71
2023/12/31 12:47:38;;;;;;;32.10;20.70;;;6.10;99.90;8.30;96078.00;;;;5046257;28;20696;-70
2023/12/31 12:50:29;;;;;;;47.13;25.60;;;5.90;99.90;8.60;96089.00;;;;5043017;28;20260;-70
2023/12/31 12:53:19;;;;;;;25.70;18.23;;;6.00;99.90;9.00;96082.00;;;;5043241;28;20208;-70